sensor_id;sensor_type;location;lat;lon;timestamp;P1;durP1;ratioP1;P2;durP2;ratioP2
18947;SDS011;9607;51.600;7.558;2023-04-03T00:00:48;5.78;;;4.53;;
18947;SDS011;9607;51.600;7.558;2023-04-03T00:03:16;4.95;;;3.85;;
18947;SDS011;9607;51.600;7.558;2023-04-03T00:05:44;4.85;;;3.60;;
18947;SDS011;9607;51.600;7.558;2023-04-03T00:08:11;3.97;;;2.47;;
18947;SDS011;9607;51.600;7.558;2023-04-03T00:10:38;2.47;;;2.28;;
18947;SDS011;9607;51.600;7.558;2023-04-03T00:13:07;5.43;;;2.47;;
18947;SDS011;9607;51.600;7.558;2023-04-03T00:15:34;2.78;;;1.90;;
18947;SDS011;9607;51.600;7.558;2023-04-03T00:18:01;2.55;;;1.88;;
18947;SDS011;9607;51.600;7.558;2023-04-03T00:20:30;7.45;;;1.90;;
18947;SDS011;9607;51.600;7.558;2023-04-03T00:22:57;3.92;;;1.70;;
18947;SDS011;9607;51.600;7.558;2023-04-03T00:25:24;3.38;;;1.63;;
18947;SDS011;9607;51.600;7.558;2023-04-03T00:27:51;3.85;;;2.28;;
18947;SDS011;9607;51.600;7.558;2023-04-03T00:30:20;4.50;;;1.75;;
18947;SDS011;9607;51.600;7.558;2023-04-03T00:32:47;2.83;;;1.38;;
18947;SDS011;9607;51.600;7.558;2023-04-03T00:35:14;2.35;;;1.48;;
18947;SDS011;9607;51.600;7.558;2023-04-03T00:37:41;4.28;;;1.80;;
18947;SDS011;9607;51.600;7.558;2023-04-03T00:40:09;2.03;;;1.42;;
18947;SDS011;9607;51.600;7.558;2023-04-03T00:42:36;3.15;;;1.45;;
18947;SDS011;9607;51.600;7.558;2023-04-03T00:45:37;3.33;;;1.65;;
18947;SDS011;9607;51.600;7.558;2023-04-03T00:48:06;2.10;;;1.45;;
18947;SDS011;9607;51.600;7.558;2023-04-03T00:50:37;2.92;;;1.33;;
18947;SDS011;9607;51.600;7.558;2023-04-03T00:53:07;3.45;;;1.70;;
18947;SDS011;9607;51.600;7.558;2023-04-03T00:55:37;3.63;;;1.42;;
18947;SDS011;9607;51.600;7.558;2023-04-03T00:58:05;2.15;;;1.33;;
18947;SDS011;9607;51.600;7.558;2023-04-03T01:00:35;1.75;;;1.15;;
18947;SDS011;9607;51.600;7.558;2023-04-03T01:03:04;2.08;;;1.30;;
18947;SDS011;9607;51.600;7.558;2023-04-03T01:05:31;3.30;;;1.38;;
18947;SDS011;9607;51.600;7.558;2023-04-03T01:07:58;2.50;;;1.40;;
18947;SDS011;9607;51.600;7.558;2023-04-03T01:10:26;3.03;;;1.55;;
18947;SDS011;9607;51.600;7.558;2023-04-03T01:12:53;2.30;;;1.40;;
18947;SDS011;9607;51.600;7.558;2023-04-03T01:15:21;3.60;;;1.90;;
18947;SDS011;9607;51.600;7.558;2023-04-03T01:17:53;3.25;;;1.35;;
18947;SDS011;9607;51.600;7.558;2023-04-03T01:20:42;5.03;;;1.92;;
18947;SDS011;9607;51.600;7.558;2023-04-03T01:23:37;2.53;;;1.50;;
18947;SDS011;9607;51.600;7.558;2023-04-03T01:26:15;2.70;;;1.40;;
18947;SDS011;9607;51.600;7.558;2023-04-03T01:28:42;3.55;;;1.60;;
18947;SDS011;9607;51.600;7.558;2023-04-03T01:31:12;4.47;;;1.38;;
18947;SDS011;9607;51.600;7.558;2023-04-03T01:33:47;6.57;;;1.90;;
18947;SDS011;9607;51.600;7.558;2023-04-03T01:36:17;5.40;;;1.38;;
18947;SDS011;9607;51.600;7.558;2023-04-03T01:38:47;2.58;;;1.70;;
18947;SDS011;9607;51.600;7.558;2023-04-03T01:41:14;5.15;;;1.60;;
18947;SDS011;9607;51.600;7.558;2023-04-03T01:43:41;2.95;;;1.40;;
18947;SDS011;9607;51.600;7.558;2023-04-03T01:46:08;3.88;;;1.20;;
18947;SDS011;9607;51.600;7.558;2023-04-03T01:48:35;2.95;;;1.65;;
18947;SDS011;9607;51.600;7.558;2023-04-03T01:51:03;4.68;;;1.50;;
18947;SDS011;9607;51.600;7.558;2023-04-03T01:53:30;3.75;;;1.48;;
18947;SDS011;9607;51.600;7.558;2023-04-03T01:55:57;2.63;;;1.33;;
18947;SDS011;9607;51.600;7.558;2023-04-03T01:58:24;2.33;;;1.20;;
18947;SDS011;9607;51.600;7.558;2023-04-03T02:00:51;3.58;;;1.73;;
18947;SDS011;9607;51.600;7.558;2023-04-03T02:03:19;2.03;;;1.27;;
18947;SDS011;9607;51.600;7.558;2023-04-03T02:05:46;3.83;;;1.65;;
18947;SDS011;9607;51.600;7.558;2023-04-03T02:08:14;6.93;;;2.13;;
18947;SDS011;9607;51.600;7.558;2023-04-03T02:10:43;3.58;;;1.42;;
18947;SDS011;9607;51.600;7.558;2023-04-03T02:13:09;2.67;;;1.38;;
18947;SDS011;9607;51.600;7.558;2023-04-03T02:15:37;3.13;;;1.67;;
18947;SDS011;9607;51.600;7.558;2023-04-03T02:18:04;2.45;;;1.77;;
18947;SDS011;9607;51.600;7.558;2023-04-03T02:20:31;3.55;;;1.60;;
18947;SDS011;9607;51.600;7.558;2023-04-03T02:22:57;2.55;;;1.52;;
18947;SDS011;9607;51.600;7.558;2023-04-03T02:25:26;3.50;;;1.48;;
18947;SDS011;9607;51.600;7.558;2023-04-03T02:27:53;2.90;;;1.50;;
18947;SDS011;9607;51.600;7.558;2023-04-03T02:30:19;2.25;;;1.60;;
18947;SDS011;9607;51.600;7.558;2023-04-03T02:32:46;4.38;;;1.65;;
18947;SDS011;9607;51.600;7.558;2023-04-03T02:35:13;3.50;;;1.50;;
18947;SDS011;9607;51.600;7.558;2023-04-03T02:37:40;4.22;;;1.70;;
18947;SDS011;9607;51.600;7.558;2023-04-03T02:40:07;3.40;;;1.40;;
18947;SDS011;9607;51.600;7.558;2023-04-03T02:42:37;3.05;;;1.42;;
18947;SDS011;9607;51.600;7.558;2023-04-03T02:45:05;2.17;;;1.67;;
18947;SDS011;9607;51.600;7.558;2023-04-03T02:47:32;2.47;;;1.40;;
18947;SDS011;9607;51.600;7.558;2023-04-03T02:49:59;3.53;;;1.63;;
18947;SDS011;9607;51.600;7.558;2023-04-03T02:52:26;3.25;;;1.77;;
18947;SDS011;9607;51.600;7.558;2023-04-03T02:54:53;2.60;;;1.45;;
18947;SDS011;9607;51.600;7.558;2023-04-03T02:57:19;2.67;;;1.50;;
18947;SDS011;9607;51.600;7.558;2023-04-03T02:59:48;1.98;;;1.48;;
18947;SDS011;9607;51.600;7.558;2023-04-03T03:02:14;1.55;;;1.30;;
18947;SDS011;9607;51.600;7.558;2023-04-03T03:04:41;2.10;;;1.33;;
18947;SDS011;9607;51.600;7.558;2023-04-03T03:07:08;2.85;;;1.40;;
18947;SDS011;9607;51.600;7.558;2023-04-03T03:09:35;3.72;;;1.50;;
18947;SDS011;9607;51.600;7.558;2023-04-03T03:12:02;1.85;;;1.50;;
18947;SDS011;9607;51.600;7.558;2023-04-03T03:14:29;2.58;;;1.75;;
18947;SDS011;9607;51.600;7.558;2023-04-03T03:16:57;2.17;;;1.52;;
18947;SDS011;9607;51.600;7.558;2023-04-03T03:19:24;2.72;;;1.55;;
18947;SDS011;9607;51.600;7.558;2023-04-03T03:21:51;1.50;;;1.10;;
18947;SDS011;9607;51.600;7.558;2023-04-03T03:24:18;2.70;;;1.70;;
18947;SDS011;9607;51.600;7.558;2023-04-03T03:26:45;2.53;;;1.38;;
18947;SDS011;9607;51.600;7.558;2023-04-03T03:29:11;2.35;;;1.45;;
18947;SDS011;9607;51.600;7.558;2023-04-03T03:31:38;2.00;;;1.75;;
18947;SDS011;9607;51.600;7.558;2023-04-03T03:34:06;3.63;;;1.70;;
18947;SDS011;9607;51.600;7.558;2023-04-03T03:36:41;2.13;;;1.60;;
18947;SDS011;9607;51.600;7.558;2023-04-03T03:39:09;3.92;;;1.75;;
18947;SDS011;9607;51.600;7.558;2023-04-03T03:41:36;3.05;;;2.20;;
18947;SDS011;9607;51.600;7.558;2023-04-03T03:44:02;1.58;;;1.42;;
18947;SDS011;9607;51.600;7.558;2023-04-03T03:46:29;2.47;;;1.80;;
18947;SDS011;9607;51.600;7.558;2023-04-03T03:48:56;2.05;;;1.80;;
18947;SDS011;9607;51.600;7.558;2023-04-03T03:51:24;2.47;;;1.75;;
18947;SDS011;9607;51.600;7.558;2023-04-03T03:53:51;3.15;;;1.80;;
18947;SDS011;9607;51.600;7.558;2023-04-03T03:56:18;2.63;;;1.60;;
18947;SDS011;9607;51.600;7.558;2023-04-03T03:58:45;3.15;;;1.60;;
18947;SDS011;9607;51.600;7.558;2023-04-03T04:01:12;2.17;;;1.60;;
18947;SDS011;9607;51.600;7.558;2023-04-03T04:03:39;2.70;;;1.77;;
18947;SDS011;9607;51.600;7.558;2023-04-03T04:06:06;2.70;;;1.90;;
18947;SDS011;9607;51.600;7.558;2023-04-03T04:08:34;2.60;;;1.63;;
18947;SDS011;9607;51.600;7.558;2023-04-03T04:11:01;2.40;;;1.75;;
18947;SDS011;9607;51.600;7.558;2023-04-03T04:13:27;3.50;;;1.83;;
18947;SDS011;9607;51.600;7.558;2023-04-03T04:15:54;2.65;;;1.70;;
18947;SDS011;9607;51.600;7.558;2023-04-03T04:18:21;4.10;;;2.45;;
18947;SDS011;9607;51.600;7.558;2023-04-03T04:20:48;4.00;;;2.08;;
18947;SDS011;9607;51.600;7.558;2023-04-03T04:23:16;5.63;;;2.35;;
18947;SDS011;9607;51.600;7.558;2023-04-03T04:25:45;5.70;;;2.78;;
18947;SDS011;9607;51.600;7.558;2023-04-03T04:28:12;2.92;;;1.63;;
18947;SDS011;9607;51.600;7.558;2023-04-03T04:30:39;4.32;;;2.30;;
18947;SDS011;9607;51.600;7.558;2023-04-03T04:33:06;6.05;;;2.50;;
18947;SDS011;9607;51.600;7.558;2023-04-03T04:35:33;5.70;;;2.00;;
18947;SDS011;9607;51.600;7.558;2023-04-03T04:38:00;5.82;;;2.28;;
18947;SDS011;9607;51.600;7.558;2023-04-03T04:40:27;5.80;;;2.35;;
18947;SDS011;9607;51.600;7.558;2023-04-03T04:42:55;5.45;;;2.17;;
18947;SDS011;9607;51.600;7.558;2023-04-03T04:45:22;3.42;;;1.88;;
18947;SDS011;9607;51.600;7.558;2023-04-03T04:47:49;3.53;;;1.95;;
18947;SDS011;9607;51.600;7.558;2023-04-03T04:50:17;2.47;;;1.88;;
18947;SDS011;9607;51.600;7.558;2023-04-03T04:52:44;2.30;;;1.73;;
18947;SDS011;9607;51.600;7.558;2023-04-03T04:55:11;5.40;;;1.80;;
18947;SDS011;9607;51.600;7.558;2023-04-03T04:57:38;3.00;;;1.77;;
18947;SDS011;9607;51.600;7.558;2023-04-03T05:00:07;2.45;;;2.03;;
18947;SDS011;9607;51.600;7.558;2023-04-03T05:02:34;2.75;;;1.85;;
18947;SDS011;9607;51.600;7.558;2023-04-03T05:05:01;4.68;;;2.10;;
18947;SDS011;9607;51.600;7.558;2023-04-03T05:07:28;3.13;;;2.05;;
18947;SDS011;9607;51.600;7.558;2023-04-03T05:09:55;4.28;;;2.22;;
18947;SDS011;9607;51.600;7.558;2023-04-03T05:12:21;4.20;;;1.85;;
18947;SDS011;9607;51.600;7.558;2023-04-03T05:14:48;4.22;;;2.38;;
18947;SDS011;9607;51.600;7.558;2023-04-03T05:17:16;5.00;;;1.70;;
18947;SDS011;9607;51.600;7.558;2023-04-03T05:19:43;2.50;;;2.00;;
18947;SDS011;9607;51.600;7.558;2023-04-03T05:22:10;8.55;;;2.20;;
18947;SDS011;9607;51.600;7.558;2023-04-03T05:24:36;2.80;;;1.95;;
18947;SDS011;9607;51.600;7.558;2023-04-03T05:27:03;3.55;;;2.10;;
18947;SDS011;9607;51.600;7.558;2023-04-03T05:29:30;4.28;;;2.17;;
18947;SDS011;9607;51.600;7.558;2023-04-03T05:31:57;4.50;;;2.05;;
18947;SDS011;9607;51.600;7.558;2023-04-03T05:34:25;4.97;;;2.65;;
18947;SDS011;9607;51.600;7.558;2023-04-03T05:36:53;4.40;;;2.13;;
18947;SDS011;9607;51.600;7.558;2023-04-03T05:39:19;5.82;;;2.28;;
18947;SDS011;9607;51.600;7.558;2023-04-03T05:41:47;3.47;;;2.15;;
18947;SDS011;9607;51.600;7.558;2023-04-03T05:44:14;4.47;;;2.47;;
18947;SDS011;9607;51.600;7.558;2023-04-03T05:46:41;6.93;;;2.17;;
18947;SDS011;9607;51.600;7.558;2023-04-03T05:49:07;6.72;;;2.80;;
18947;SDS011;9607;51.600;7.558;2023-04-03T05:51:36;5.22;;;2.40;;
18947;SDS011;9607;51.600;7.558;2023-04-03T05:54:06;6.97;;;2.72;;
18947;SDS011;9607;51.600;7.558;2023-04-03T05:56:36;6.88;;;2.65;;
18947;SDS011;9607;51.600;7.558;2023-04-03T05:59:02;4.93;;;2.60;;
18947;SDS011;9607;51.600;7.558;2023-04-03T06:01:29;5.63;;;2.97;;
18947;SDS011;9607;51.600;7.558;2023-04-03T06:03:56;7.70;;;3.83;;
18947;SDS011;9607;51.600;7.558;2023-04-03T06:06:23;6.10;;;3.35;;
18947;SDS011;9607;51.600;7.558;2023-04-03T06:08:51;5.53;;;2.58;;
18947;SDS011;9607;51.600;7.558;2023-04-03T06:11:19;3.80;;;2.20;;
18947;SDS011;9607;51.600;7.558;2023-04-03T06:13:46;5.00;;;2.75;;
18947;SDS011;9607;51.600;7.558;2023-04-03T06:16:13;7.38;;;2.85;;
18947;SDS011;9607;51.600;7.558;2023-04-03T06:18:43;6.63;;;2.55;;
18947;SDS011;9607;51.600;7.558;2023-04-03T06:21:09;4.80;;;2.70;;
18947;SDS011;9607;51.600;7.558;2023-04-03T06:23:36;6.10;;;2.55;;
18947;SDS011;9607;51.600;7.558;2023-04-03T06:26:04;8.18;;;2.85;;
18947;SDS011;9607;51.600;7.558;2023-04-03T06:28:32;5.05;;;2.33;;
18947;SDS011;9607;51.600;7.558;2023-04-03T06:30:59;5.93;;;2.90;;
18947;SDS011;9607;51.600;7.558;2023-04-03T06:33:25;6.15;;;2.88;;
18947;SDS011;9607;51.600;7.558;2023-04-03T06:35:55;5.53;;;2.55;;
18947;SDS011;9607;51.600;7.558;2023-04-03T06:38:23;6.28;;;2.80;;
18947;SDS011;9607;51.600;7.558;2023-04-03T06:40:50;5.90;;;2.20;;
18947;SDS011;9607;51.600;7.558;2023-04-03T06:43:19;6.07;;;2.58;;
18947;SDS011;9607;51.600;7.558;2023-04-03T06:45:46;4.35;;;2.25;;
18947;SDS011;9607;51.600;7.558;2023-04-03T06:48:13;7.40;;;2.30;;
18947;SDS011;9607;51.600;7.558;2023-04-03T06:50:40;7.18;;;2.30;;
18947;SDS011;9607;51.600;7.558;2023-04-03T06:53:08;3.22;;;2.15;;
18947;SDS011;9607;51.600;7.558;2023-04-03T06:55:35;6.40;;;2.47;;
18947;SDS011;9607;51.600;7.558;2023-04-03T06:58:02;6.25;;;2.10;;
18947;SDS011;9607;51.600;7.558;2023-04-03T07:00:31;5.45;;;1.83;;
18947;SDS011;9607;51.600;7.558;2023-04-03T07:02:57;4.15;;;2.33;;
18947;SDS011;9607;51.600;7.558;2023-04-03T07:05:24;5.22;;;1.83;;
18947;SDS011;9607;51.600;7.558;2023-04-03T07:07:51;5.75;;;2.25;;
18947;SDS011;9607;51.600;7.558;2023-04-03T07:10:18;4.00;;;2.03;;
18947;SDS011;9607;51.600;7.558;2023-04-03T07:12:45;5.55;;;2.67;;
18947;SDS011;9607;51.600;7.558;2023-04-03T07:15:12;3.85;;;1.80;;
18947;SDS011;9607;51.600;7.558;2023-04-03T07:17:40;4.47;;;1.80;;
18947;SDS011;9607;51.600;7.558;2023-04-03T07:20:08;3.60;;;2.00;;
18947;SDS011;9607;51.600;7.558;2023-04-03T07:22:35;4.75;;;2.10;;
18947;SDS011;9607;51.600;7.558;2023-04-03T07:25:03;4.10;;;1.42;;
18947;SDS011;9607;51.600;7.558;2023-04-03T07:27:32;4.68;;;1.92;;
18947;SDS011;9607;51.600;7.558;2023-04-03T07:29:59;4.35;;;2.00;;
18947;SDS011;9607;51.600;7.558;2023-04-03T07:32:26;5.82;;;1.92;;
18947;SDS011;9607;51.600;7.558;2023-04-03T07:34:55;3.78;;;1.58;;
18947;SDS011;9607;51.600;7.558;2023-04-03T07:37:21;3.47;;;1.58;;
18947;SDS011;9607;51.600;7.558;2023-04-03T07:39:48;5.75;;;1.95;;
18947;SDS011;9607;51.600;7.558;2023-04-03T07:42:15;3.25;;;1.77;;
18947;SDS011;9607;51.600;7.558;2023-04-03T07:44:42;6.22;;;2.08;;
18947;SDS011;9607;51.600;7.558;2023-04-03T07:47:09;6.18;;;1.75;;
18947;SDS011;9607;51.600;7.558;2023-04-03T07:49:36;3.88;;;1.58;;
18947;SDS011;9607;51.600;7.558;2023-04-03T07:52:06;3.17;;;1.55;;
18947;SDS011;9607;51.600;7.558;2023-04-03T07:54:34;3.15;;;1.50;;
18947;SDS011;9607;51.600;7.558;2023-04-03T07:57:01;4.00;;;1.40;;
18947;SDS011;9607;51.600;7.558;2023-04-03T07:59:29;5.97;;;1.63;;
18947;SDS011;9607;51.600;7.558;2023-04-03T08:01:56;3.42;;;1.75;;
18947;SDS011;9607;51.600;7.558;2023-04-03T08:04:23;3.97;;;1.40;;
18947;SDS011;9607;51.600;7.558;2023-04-03T08:06:50;2.97;;;1.60;;
18947;SDS011;9607;51.600;7.558;2023-04-03T08:09:18;2.45;;;1.73;;
18947;SDS011;9607;51.600;7.558;2023-04-03T08:11:46;4.05;;;1.73;;
18947;SDS011;9607;51.600;7.558;2023-04-03T08:14:13;4.65;;;1.98;;
18947;SDS011;9607;51.600;7.558;2023-04-03T08:16:43;4.60;;;1.60;;
18947;SDS011;9607;51.600;7.558;2023-04-03T08:19:10;7.53;;;2.00;;
18947;SDS011;9607;51.600;7.558;2023-04-03T08:21:39;6.82;;;1.90;;
18947;SDS011;9607;51.600;7.558;2023-04-03T08:24:06;4.97;;;1.55;;
18947;SDS011;9607;51.600;7.558;2023-04-03T08:26:34;2.55;;;1.40;;
18947;SDS011;9607;51.600;7.558;2023-04-03T08:29:01;4.63;;;1.60;;
18947;SDS011;9607;51.600;7.558;2023-04-03T08:31:28;1.80;;;1.38;;
18947;SDS011;9607;51.600;7.558;2023-04-03T08:33:56;3.45;;;1.40;;
18947;SDS011;9607;51.600;7.558;2023-04-03T08:36:24;2.97;;;2.03;;
18947;SDS011;9607;51.600;7.558;2023-04-03T08:38:52;4.03;;;1.42;;
18947;SDS011;9607;51.600;7.558;2023-04-03T08:41:21;3.75;;;1.10;;
18947;SDS011;9607;51.600;7.558;2023-04-03T08:43:58;2.95;;;1.40;;
18947;SDS011;9607;51.600;7.558;2023-04-03T08:46:40;2.15;;;1.42;;
18947;SDS011;9607;51.600;7.558;2023-04-03T08:49:19;2.05;;;1.23;;
18947;SDS011;9607;51.600;7.558;2023-04-03T08:51:51;2.58;;;1.50;;
18947;SDS011;9607;51.600;7.558;2023-04-03T08:54:22;4.28;;;1.35;;
18947;SDS011;9607;51.600;7.558;2023-04-03T08:56:53;2.85;;;1.63;;
18947;SDS011;9607;51.600;7.558;2023-04-03T08:59:24;2.60;;;1.30;;
18947;SDS011;9607;51.600;7.558;2023-04-03T09:01:55;6.70;;;1.58;;
18947;SDS011;9607;51.600;7.558;2023-04-03T09:04:24;4.57;;;1.58;;
18947;SDS011;9607;51.600;7.558;2023-04-03T09:06:54;3.80;;;1.35;;
18947;SDS011;9607;51.600;7.558;2023-04-03T09:09:27;3.53;;;1.60;;
18947;SDS011;9607;51.600;7.558;2023-04-03T09:12:00;6.47;;;1.63;;
18947;SDS011;9607;51.600;7.558;2023-04-03T09:14:37;3.50;;;1.48;;
18947;SDS011;9607;51.600;7.558;2023-04-03T09:17:09;2.35;;;1.30;;
18947;SDS011;9607;51.600;7.558;2023-04-03T09:19:41;2.38;;;1.42;;
18947;SDS011;9607;51.600;7.558;2023-04-03T09:22:16;2.92;;;1.30;;
18947;SDS011;9607;51.600;7.558;2023-04-03T09:24:45;4.43;;;1.67;;
18947;SDS011;9607;51.600;7.558;2023-04-03T09:27:15;2.60;;;1.35;;
18947;SDS011;9607;51.600;7.558;2023-04-03T09:29:43;2.95;;;1.15;;
18947;SDS011;9607;51.600;7.558;2023-04-03T09:32:21;3.22;;;1.30;;
18947;SDS011;9607;51.600;7.558;2023-04-03T09:34:53;3.67;;;1.30;;
18947;SDS011;9607;51.600;7.558;2023-04-03T09:40:33;5.20;;;1.60;;
18947;SDS011;9607;51.600;7.558;2023-04-03T09:45:49;5.22;;;1.70;;
18947;SDS011;9607;51.600;7.558;2023-04-03T09:48:17;3.20;;;1.10;;
18947;SDS011;9607;51.600;7.558;2023-04-03T09:50:56;1.98;;;1.23;;
18947;SDS011;9607;51.600;7.558;2023-04-03T09:53:26;3.08;;;1.00;;
18947;SDS011;9607;51.600;7.558;2023-04-03T09:55:59;1.63;;;1.00;;
18947;SDS011;9607;51.600;7.558;2023-04-03T09:58:28;2.50;;;1.27;;
18947;SDS011;9607;51.600;7.558;2023-04-03T10:01:00;2.83;;;1.00;;
18947;SDS011;9607;51.600;7.558;2023-04-03T10:03:28;3.80;;;1.35;;
18947;SDS011;9607;51.600;7.558;2023-04-03T10:05:57;2.85;;;1.10;;
18947;SDS011;9607;51.600;7.558;2023-04-03T10:08:26;2.45;;;1.13;;
18947;SDS011;9607;51.600;7.558;2023-04-03T10:13:50;2.90;;;1.30;;
18947;SDS011;9607;51.600;7.558;2023-04-03T10:16:25;3.35;;;1.00;;
18947;SDS011;9607;51.600;7.558;2023-04-03T10:19:03;2.58;;;1.00;;
18947;SDS011;9607;51.600;7.558;2023-04-03T10:21:40;2.35;;;1.05;;
18947;SDS011;9607;51.600;7.558;2023-04-03T10:24:13;4.32;;;1.00;;
18947;SDS011;9607;51.600;7.558;2023-04-03T10:26:48;1.27;;;0.82;;
18947;SDS011;9607;51.600;7.558;2023-04-03T10:29:23;1.98;;;1.00;;
18947;SDS011;9607;51.600;7.558;2023-04-03T10:32:23;2.13;;;0.80;;
18947;SDS011;9607;51.600;7.558;2023-04-03T10:35:02;1.13;;;0.80;;
18947;SDS011;9607;51.600;7.558;2023-04-03T10:37:41;2.67;;;1.30;;
18947;SDS011;9607;51.600;7.558;2023-04-03T10:40:22;1.35;;;1.00;;
18947;SDS011;9607;51.600;7.558;2023-04-03T10:42:57;3.63;;;1.00;;
18947;SDS011;9607;51.600;7.558;2023-04-03T10:45:30;1.50;;;0.88;;
18947;SDS011;9607;51.600;7.558;2023-04-03T10:48:04;1.85;;;1.10;;
18947;SDS011;9607;51.600;7.558;2023-04-03T10:50:38;3.58;;;1.10;;
18947;SDS011;9607;51.600;7.558;2023-04-03T10:53:12;1.20;;;0.77;;
18947;SDS011;9607;51.600;7.558;2023-04-03T10:55:49;4.78;;;1.10;;
18947;SDS011;9607;51.600;7.558;2023-04-03T10:58:24;1.48;;;0.80;;
18947;SDS011;9607;51.600;7.558;2023-04-03T11:00:57;3.40;;;0.80;;
18947;SDS011;9607;51.600;7.558;2023-04-03T11:03:34;4.15;;;0.75;;
18947;SDS011;9607;51.600;7.558;2023-04-03T11:06:04;1.83;;;0.90;;
18947;SDS011;9607;51.600;7.558;2023-04-03T11:08:35;2.70;;;0.80;;
18947;SDS011;9607;51.600;7.558;2023-04-03T11:11:08;1.92;;;0.88;;
18947;SDS011;9607;51.600;7.558;2023-04-03T11:13:40;1.90;;;0.88;;
18947;SDS011;9607;51.600;7.558;2023-04-03T11:16:12;2.28;;;1.00;;
18947;SDS011;9607;51.600;7.558;2023-04-03T11:18:44;1.42;;;0.80;;
18947;SDS011;9607;51.600;7.558;2023-04-03T11:21:19;3.72;;;0.98;;
18947;SDS011;9607;51.600;7.558;2023-04-03T11:23:49;1.92;;;0.90;;
18947;SDS011;9607;51.600;7.558;2023-04-03T11:26:19;3.90;;;1.02;;
18947;SDS011;9607;51.600;7.558;2023-04-03T11:28:52;0.85;;;0.70;;
18947;SDS011;9607;51.600;7.558;2023-04-03T11:31:23;2.35;;;0.90;;
18947;SDS011;9607;51.600;7.558;2023-04-03T11:34:00;3.00;;;1.00;;
18947;SDS011;9607;51.600;7.558;2023-04-03T11:36:45;1.05;;;0.85;;
18947;SDS011;9607;51.600;7.558;2023-04-03T11:39:18;2.63;;;0.90;;
18947;SDS011;9607;51.600;7.558;2023-04-03T11:41:49;2.38;;;1.35;;
18947;SDS011;9607;51.600;7.558;2023-04-03T11:44:30;1.52;;;0.60;;
18947;SDS011;9607;51.600;7.558;2023-04-03T11:47:01;2.25;;;0.90;;
18947;SDS011;9607;51.600;7.558;2023-04-03T11:58:18;2.45;;;0.80;;
18947;SDS011;9607;51.600;7.558;2023-04-03T12:00:50;1.63;;;0.90;;
18947;SDS011;9607;51.600;7.558;2023-04-03T12:06:48;4.07;;;1.10;;
18947;SDS011;9607;51.600;7.558;2023-04-03T12:09:26;2.22;;;0.95;;
18947;SDS011;9607;51.600;7.558;2023-04-03T12:12:01;1.80;;;0.80;;
18947;SDS011;9607;51.600;7.558;2023-04-03T12:14:53;0.85;;;0.75;;
18947;SDS011;9607;51.600;7.558;2023-04-03T12:17:21;1.40;;;0.70;;
18947;SDS011;9607;51.600;7.558;2023-04-03T12:19:52;2.80;;;0.75;;
18947;SDS011;9607;51.600;7.558;2023-04-03T12:22:19;1.70;;;0.82;;
18947;SDS011;9607;51.600;7.558;2023-04-03T12:24:48;2.13;;;0.98;;
18947;SDS011;9607;51.600;7.558;2023-04-03T12:27:30;1.63;;;0.70;;
18947;SDS011;9607;51.600;7.558;2023-04-03T12:30:04;1.73;;;0.68;;
18947;SDS011;9607;51.600;7.558;2023-04-03T12:32:46;1.05;;;0.73;;
18947;SDS011;9607;51.600;7.558;2023-04-03T12:35:31;1.10;;;0.57;;
18947;SDS011;9607;51.600;7.558;2023-04-03T12:40:56;2.08;;;1.00;;
18947;SDS011;9607;51.600;7.558;2023-04-03T12:43:36;1.80;;;1.00;;
18947;SDS011;9607;51.600;7.558;2023-04-03T12:46:12;1.73;;;0.80;;
18947;SDS011;9607;51.600;7.558;2023-04-03T12:48:47;1.83;;;0.85;;
18947;SDS011;9607;51.600;7.558;2023-04-03T12:51:16;1.70;;;0.70;;
18947;SDS011;9607;51.600;7.558;2023-04-03T12:53:46;2.08;;;1.02;;
18947;SDS011;9607;51.600;7.558;2023-04-03T12:56:18;3.03;;;1.30;;
18947;SDS011;9607;51.600;7.558;2023-04-03T12:58:47;1.92;;;0.70;;
18947;SDS011;9607;51.600;7.558;2023-04-03T13:01:16;2.13;;;0.70;;
18947;SDS011;9607;51.600;7.558;2023-04-03T13:03:47;1.40;;;0.70;;
18947;SDS011;9607;51.600;7.558;2023-04-03T13:06:18;1.05;;;0.65;;
18947;SDS011;9607;51.600;7.558;2023-04-03T13:08:51;2.13;;;0.95;;
18947;SDS011;9607;51.600;7.558;2023-04-03T13:11:19;3.63;;;1.65;;
18947;SDS011;9607;51.600;7.558;2023-04-03T13:13:54;1.05;;;0.80;;
18947;SDS011;9607;51.600;7.558;2023-04-03T13:16:23;1.42;;;0.63;;
18947;SDS011;9607;51.600;7.558;2023-04-03T13:18:51;1.80;;;1.00;;
18947;SDS011;9607;51.600;7.558;2023-04-03T13:21:20;3.40;;;0.82;;
18947;SDS011;9607;51.600;7.558;2023-04-03T13:23:50;1.88;;;0.88;;
18947;SDS011;9607;51.600;7.558;2023-04-03T13:26:20;1.98;;;1.02;;
18947;SDS011;9607;51.600;7.558;2023-04-03T13:28:49;1.58;;;0.90;;
18947;SDS011;9607;51.600;7.558;2023-04-03T13:31:21;0.95;;;0.43;;
18947;SDS011;9607;51.600;7.558;2023-04-03T13:33:56;1.65;;;1.00;;
18947;SDS011;9607;51.600;7.558;2023-04-03T13:36:32;2.42;;;0.80;;
18947;SDS011;9607;51.600;7.558;2023-04-03T13:39:21;1.42;;;0.90;;
18947;SDS011;9607;51.600;7.558;2023-04-03T13:41:50;1.90;;;1.00;;
18947;SDS011;9607;51.600;7.558;2023-04-03T13:44:25;2.78;;;1.30;;
18947;SDS011;9607;51.600;7.558;2023-04-03T13:46:57;2.05;;;1.00;;
18947;SDS011;9607;51.600;7.558;2023-04-03T13:49:28;1.48;;;1.00;;
18947;SDS011;9607;51.600;7.558;2023-04-03T13:51:58;1.92;;;1.00;;
18947;SDS011;9607;51.600;7.558;2023-04-03T13:54:29;3.40;;;1.00;;
18947;SDS011;9607;51.600;7.558;2023-04-03T13:56:58;1.88;;;0.85;;
18947;SDS011;9607;51.600;7.558;2023-04-03T13:59:27;1.50;;;0.75;;
18947;SDS011;9607;51.600;7.558;2023-04-03T14:02:06;1.73;;;0.80;;
18947;SDS011;9607;51.600;7.558;2023-04-03T14:04:52;1.77;;;0.98;;
18947;SDS011;9607;51.600;7.558;2023-04-03T14:07:23;2.63;;;1.00;;
18947;SDS011;9607;51.600;7.558;2023-04-03T14:09:50;1.30;;;0.93;;
18947;SDS011;9607;51.600;7.558;2023-04-03T14:12:19;2.95;;;1.10;;
18947;SDS011;9607;51.600;7.558;2023-04-03T14:14:51;2.58;;;1.15;;
18947;SDS011;9607;51.600;7.558;2023-04-03T14:17:20;2.53;;;0.90;;
18947;SDS011;9607;51.600;7.558;2023-04-03T14:19:48;2.30;;;1.00;;
18947;SDS011;9607;51.600;7.558;2023-04-03T14:22:17;2.15;;;1.10;;
18947;SDS011;9607;51.600;7.558;2023-04-03T14:24:46;2.45;;;1.25;;
18947;SDS011;9607;51.600;7.558;2023-04-03T14:27:15;1.77;;;1.20;;
18947;SDS011;9607;51.600;7.558;2023-04-03T14:29:44;1.67;;;1.02;;
18947;SDS011;9607;51.600;7.558;2023-04-03T14:32:12;1.95;;;1.17;;
18947;SDS011;9607;51.600;7.558;2023-04-03T14:34:42;1.50;;;0.90;;
18947;SDS011;9607;51.600;7.558;2023-04-03T14:37:11;2.60;;;1.40;;
18947;SDS011;9607;51.600;7.558;2023-04-03T14:39:40;3.97;;;1.45;;
18947;SDS011;9607;51.600;7.558;2023-04-03T14:42:10;2.05;;;1.20;;
18947;SDS011;9607;51.600;7.558;2023-04-03T14:44:39;6.55;;;1.77;;
18947;SDS011;9607;51.600;7.558;2023-04-03T14:47:08;1.30;;;1.00;;
18947;SDS011;9607;51.600;7.558;2023-04-03T14:49:36;2.47;;;1.33;;
18947;SDS011;9607;51.600;7.558;2023-04-03T14:52:05;2.10;;;1.00;;
18947;SDS011;9607;51.600;7.558;2023-04-03T14:54:33;1.88;;;0.88;;
18947;SDS011;9607;51.600;7.558;2023-04-03T14:57:00;1.80;;;0.80;;
18947;SDS011;9607;51.600;7.558;2023-04-03T14:59:28;2.15;;;0.95;;
18947;SDS011;9607;51.600;7.558;2023-04-03T15:01:56;3.70;;;1.25;;
18947;SDS011;9607;51.600;7.558;2023-04-03T15:04:23;2.42;;;1.10;;
18947;SDS011;9607;51.600;7.558;2023-04-03T15:06:50;2.67;;;1.02;;
18947;SDS011;9607;51.600;7.558;2023-04-03T15:09:20;2.65;;;0.95;;
18947;SDS011;9607;51.600;7.558;2023-04-03T15:11:48;1.45;;;0.85;;
18947;SDS011;9607;51.600;7.558;2023-04-03T15:14:16;1.65;;;0.88;;
18947;SDS011;9607;51.600;7.558;2023-04-03T15:16:43;1.73;;;1.35;;
18947;SDS011;9607;51.600;7.558;2023-04-03T15:19:10;1.45;;;0.90;;
18947;SDS011;9607;51.600;7.558;2023-04-03T15:21:37;1.23;;;0.80;;
18947;SDS011;9607;51.600;7.558;2023-04-03T15:24:04;1.88;;;1.00;;
18947;SDS011;9607;51.600;7.558;2023-04-03T15:26:33;2.22;;;0.90;;
18947;SDS011;9607;51.600;7.558;2023-04-03T15:29:00;3.28;;;1.08;;
18947;SDS011;9607;51.600;7.558;2023-04-03T15:31:27;1.23;;;0.80;;
18947;SDS011;9607;51.600;7.558;2023-04-03T15:33:53;1.80;;;0.90;;
18947;SDS011;9607;51.600;7.558;2023-04-03T15:36:20;2.03;;;1.08;;
18947;SDS011;9607;51.600;7.558;2023-04-03T15:38:47;1.67;;;0.93;;